Absecon Highlands, New Jersey
Current Conditions -  °F | °C
As of 7:54 PM on Saturday 25 Oct 2014 (Local Time) from KACY Reporting Station
Clear Clear  
Wind Chill: 59°   Ceiling: Unl
Heat Index: 59°   Visibility: 10mi
Dew Point: 46°   Wind: 8mph
Humidity: 62%   Direction: 220°SW
Pressure: 29.71"   Gusts: NA
Location:  39.4315°N, 74.5003°W
Report Text: KACY 252354Z 22007KT 10SM CLR 15/08 A2971 RMK AO2 SLP060 T01500078 10206 20144 56007
Loading
Personal Weather Stations






























Interactive Weather Map
Tropical Storm Tracking
New forecast layout! Learn more

10-Day Weather Forecast

Advertisements
Track Severe Weather on mobile